sensor_id;sensor_type;location;lat;lon;timestamp;temperature;humidity
36442;DHT22;64346;50.820;16.274;2023-03-11T00:01:17;7.50;99.90
36442;DHT22;64346;50.820;16.274;2023-03-11T00:03:44;7.50;99.90
36442;DHT22;64346;50.820;16.274;2023-03-11T00:06:12;7.50;99.90
36442;DHT22;64346;50.820;16.274;2023-03-11T00:08:39;7.50;99.90
36442;DHT22;64346;50.820;16.274;2023-03-11T00:11:06;7.50;99.90
36442;DHT22;64346;50.820;16.274;2023-03-11T00:13:33;7.40;99.90
36442;DHT22;64346;50.820;16.274;2023-03-11T00:16:04;7.40;99.90
36442;DHT22;64346;50.820;16.274;2023-03-11T00:18:31;7.30;99.90
36442;DHT22;64346;50.820;16.274;2023-03-11T00:21:01;7.30;99.90
36442;DHT22;64346;50.820;16.274;2023-03-11T00:23:31;7.30;99.90
36442;DHT22;64346;50.820;16.274;2023-03-11T00:26:02;7.30;99.90
36442;DHT22;64346;50.820;16.274;2023-03-11T00:28:29;7.30;99.90
36442;DHT22;64346;50.820;16.274;2023-03-11T00:31:03;7.30;99.90
36442;DHT22;64346;50.820;16.274;2023-03-11T00:33:33;7.30;99.90
36442;DHT22;64346;50.820;16.274;2023-03-11T00:36:00;7.20;99.90
36442;DHT22;64346;50.820;16.274;2023-03-11T00:38:27;7.30;99.90
36442;DHT22;64346;50.820;16.274;2023-03-11T00:40:57;7.20;99.90
36442;DHT22;64346;50.820;16.274;2023-03-11T00:43:25;7.20;99.90
36442;DHT22;64346;50.820;16.274;2023-03-11T00:45:52;7.20;99.90
36442;DHT22;64346;50.820;16.274;2023-03-11T00:48:22;7.20;99.90
36442;DHT22;64346;50.820;16.274;2023-03-11T00:50:49;7.10;99.90
36442;DHT22;64346;50.820;16.274;2023-03-11T00:53:16;7.10;99.90
36442;DHT22;64346;50.820;16.274;2023-03-11T00:55:43;7.10;99.90
36442;DHT22;64346;50.820;16.274;2023-03-11T00:58:11;7.10;99.90
36442;DHT22;64346;50.820;16.274;2023-03-11T01:00:38;7.10;99.90
36442;DHT22;64346;50.820;16.274;2023-03-11T01:03:08;7.00;99.90
36442;DHT22;64346;50.820;16.274;2023-03-11T01:05:39;7.00;99.90
36442;DHT22;64346;50.820;16.274;2023-03-11T01:08:06;7.00;99.90
36442;DHT22;64346;50.820;16.274;2023-03-11T01:10:34;7.00;99.90
36442;DHT22;64346;50.820;16.274;2023-03-11T01:13:04;7.00;99.90
36442;DHT22;64346;50.820;16.274;2023-03-11T01:15:35;7.00;99.90
36442;DHT22;64346;50.820;16.274;2023-03-11T01:18:03;7.00;99.90
36442;DHT22;64346;50.820;16.274;2023-03-11T01:20:31;7.00;99.90
36442;DHT22;64346;50.820;16.274;2023-03-11T01:23:00;7.00;99.90
36442;DHT22;64346;50.820;16.274;2023-03-11T01:25:30;7.00;99.90
36442;DHT22;64346;50.820;16.274;2023-03-11T01:27:58;7.00;99.90
36442;DHT22;64346;50.820;16.274;2023-03-11T01:30:26;6.90;99.90
36442;DHT22;64346;50.820;16.274;2023-03-11T01:32:57;6.90;99.90
36442;DHT22;64346;50.820;16.274;2023-03-11T01:35:26;6.80;99.90
36442;DHT22;64346;50.820;16.274;2023-03-11T01:37:53;6.80;99.90
36442;DHT22;64346;50.820;16.274;2023-03-11T01:42:59;6.80;99.90
36442;DHT22;64346;50.820;16.274;2023-03-11T01:48:02;6.70;99.90
36442;DHT22;64346;50.820;16.274;2023-03-11T01:50:34;6.70;99.90
36442;DHT22;64346;50.820;16.274;2023-03-11T01:53:02;6.60;99.90
36442;DHT22;64346;50.820;16.274;2023-03-11T01:55:31;6.60;99.90
36442;DHT22;64346;50.820;16.274;2023-03-11T01:58:06;6.60;99.90
36442;DHT22;64346;50.820;16.274;2023-03-11T02:00:37;6.60;99.90
36442;DHT22;64346;50.820;16.274;2023-03-11T02:03:14;6.50;99.90
36442;DHT22;64346;50.820;16.274;2023-03-11T02:05:46;6.50;99.90
36442;DHT22;64346;50.820;16.274;2023-03-11T02:08:15;6.50;99.90
36442;DHT22;64346;50.820;16.274;2023-03-11T02:10:43;6.50;99.90
36442;DHT22;64346;50.820;16.274;2023-03-11T02:13:13;6.50;99.90
36442;DHT22;64346;50.820;16.274;2023-03-11T02:15:43;6.50;99.90
36442;DHT22;64346;50.820;16.274;2023-03-11T02:18:12;6.50;99.90
36442;DHT22;64346;50.820;16.274;2023-03-11T02:21:07;6.50;99.90
36442;DHT22;64346;50.820;16.274;2023-03-11T02:23:46;6.50;99.90
36442;DHT22;64346;50.820;16.274;2023-03-11T02:28:48;6.50;99.90
36442;DHT22;64346;50.820;16.274;2023-03-11T02:31:16;6.50;99.90
36442;DHT22;64346;50.820;16.274;2023-03-11T02:33:48;6.50;99.90
36442;DHT22;64346;50.820;16.274;2023-03-11T02:36:49;6.40;99.90
36442;DHT22;64346;50.820;16.274;2023-03-11T02:39:27;6.40;99.90
36442;DHT22;64346;50.820;16.274;2023-03-11T02:41:54;6.40;99.90
36442;DHT22;64346;50.820;16.274;2023-03-11T02:44:25;6.40;99.90
36442;DHT22;64346;50.820;16.274;2023-03-11T02:46:52;6.40;99.90
36442;DHT22;64346;50.820;16.274;2023-03-11T02:49:23;6.30;99.90
36442;DHT22;64346;50.820;16.274;2023-03-11T02:51:50;6.20;99.90
36442;DHT22;64346;50.820;16.274;2023-03-11T02:54:20;6.00;99.90
36442;DHT22;64346;50.820;16.274;2023-03-11T02:56:49;5.80;99.90
36442;DHT22;64346;50.820;16.274;2023-03-11T02:59:17;5.60;99.90
36442;DHT22;64346;50.820;16.274;2023-03-11T03:01:49;5.40;99.90
36442;DHT22;64346;50.820;16.274;2023-03-11T03:04:16;5.30;99.90
36442;DHT22;64346;50.820;16.274;2023-03-11T03:06:43;5.20;99.90
36442;DHT22;64346;50.820;16.274;2023-03-11T03:09:15;5.10;99.90
36442;DHT22;64346;50.820;16.274;2023-03-11T03:11:44;5.00;99.90
36442;DHT22;64346;50.820;16.274;2023-03-11T03:14:12;4.90;99.90
36442;DHT22;64346;50.820;16.274;2023-03-11T03:16:39;4.90;99.90
36442;DHT22;64346;50.820;16.274;2023-03-11T03:19:06;5.00;99.90
36442;DHT22;64346;50.820;16.274;2023-03-11T03:21:36;4.80;99.90
36442;DHT22;64346;50.820;16.274;2023-03-11T03:24:03;4.80;99.90
36442;DHT22;64346;50.820;16.274;2023-03-11T03:26:31;4.80;99.90
36442;DHT22;64346;50.820;16.274;2023-03-11T03:29:00;4.80;99.90
36442;DHT22;64346;50.820;16.274;2023-03-11T03:31:27;4.80;99.90
36442;DHT22;64346;50.820;16.274;2023-03-11T03:33:55;4.70;99.90
36442;DHT22;64346;50.820;16.274;2023-03-11T03:36:22;4.80;99.90
36442;DHT22;64346;50.820;16.274;2023-03-11T03:38:58;4.70;99.90
36442;DHT22;64346;50.820;16.274;2023-03-11T03:41:25;4.70;99.90
36442;DHT22;64346;50.820;16.274;2023-03-11T03:43:54;4.70;99.90
36442;DHT22;64346;50.820;16.274;2023-03-11T03:46:24;4.50;99.90
36442;DHT22;64346;50.820;16.274;2023-03-11T03:48:51;4.40;99.90
36442;DHT22;64346;50.820;16.274;2023-03-11T03:51:19;4.30;99.90
36442;DHT22;64346;50.820;16.274;2023-03-11T03:53:46;4.30;99.90
36442;DHT22;64346;50.820;16.274;2023-03-11T03:56:16;4.30;99.90
36442;DHT22;64346;50.820;16.274;2023-03-11T03:58:43;4.20;99.90
36442;DHT22;64346;50.820;16.274;2023-03-11T04:04:01;4.00;99.90
36442;DHT22;64346;50.820;16.274;2023-03-11T04:06:28;4.00;99.90
36442;DHT22;64346;50.820;16.274;2023-03-11T04:08:58;4.00;99.90
36442;DHT22;64346;50.820;16.274;2023-03-11T04:11:27;3.90;99.90
36442;DHT22;64346;50.820;16.274;2023-03-11T04:13:57;3.90;99.90
36442;DHT22;64346;50.820;16.274;2023-03-11T04:16:24;4.00;99.90
36442;DHT22;64346;50.820;16.274;2023-03-11T04:18:54;4.00;99.90
36442;DHT22;64346;50.820;16.274;2023-03-11T04:21:21;4.00;99.90
36442;DHT22;64346;50.820;16.274;2023-03-11T04:23:49;4.00;99.90
36442;DHT22;64346;50.820;16.274;2023-03-11T04:26:19;4.00;99.90
36442;DHT22;64346;50.820;16.274;2023-03-11T04:28:46;4.10;99.90
36442;DHT22;64346;50.820;16.274;2023-03-11T04:31:13;4.10;99.90
36442;DHT22;64346;50.820;16.274;2023-03-11T04:33:40;4.10;99.90
36442;DHT22;64346;50.820;16.274;2023-03-11T04:36:11;4.00;99.90
36442;DHT22;64346;50.820;16.274;2023-03-11T04:38:38;4.00;99.90
36442;DHT22;64346;50.820;16.274;2023-03-11T04:41:06;4.00;99.90
36442;DHT22;64346;50.820;16.274;2023-03-11T04:43:34;4.00;99.90
36442;DHT22;64346;50.820;16.274;2023-03-11T04:46:04;4.00;99.90
36442;DHT22;64346;50.820;16.274;2023-03-11T04:48:31;3.90;99.90
36442;DHT22;64346;50.820;16.274;2023-03-11T04:51:00;3.90;99.90
36442;DHT22;64346;50.820;16.274;2023-03-11T04:53:30;3.80;99.90
36442;DHT22;64346;50.820;16.274;2023-03-11T04:56:00;3.80;99.90
36442;DHT22;64346;50.820;16.274;2023-03-11T04:58:27;3.80;99.90
36442;DHT22;64346;50.820;16.274;2023-03-11T05:00:54;3.70;99.90
36442;DHT22;64346;50.820;16.274;2023-03-11T05:03:24;3.70;99.90
36442;DHT22;64346;50.820;16.274;2023-03-11T05:05:56;3.70;99.90
36442;DHT22;64346;50.820;16.274;2023-03-11T05:08:23;3.70;99.90
36442;DHT22;64346;50.820;16.274;2023-03-11T05:10:53;3.60;99.90
36442;DHT22;64346;50.820;16.274;2023-03-11T05:13:20;3.60;99.90
36442;DHT22;64346;50.820;16.274;2023-03-11T05:15:50;3.50;99.90
36442;DHT22;64346;50.820;16.274;2023-03-11T05:18:17;3.40;99.90
36442;DHT22;64346;50.820;16.274;2023-03-11T05:20:46;3.40;99.90
36442;DHT22;64346;50.820;16.274;2023-03-11T05:23:16;3.40;99.90
36442;DHT22;64346;50.820;16.274;2023-03-11T05:25:43;3.40;99.90
36442;DHT22;64346;50.820;16.274;2023-03-11T05:28:11;3.40;99.90
36442;DHT22;64346;50.820;16.274;2023-03-11T05:30:38;3.40;99.90
36442;DHT22;64346;50.820;16.274;2023-03-11T05:33:10;3.40;99.90
36442;DHT22;64346;50.820;16.274;2023-03-11T05:35:37;3.30;99.90
36442;DHT22;64346;50.820;16.274;2023-03-11T05:38:07;3.30;99.90
36442;DHT22;64346;50.820;16.274;2023-03-11T05:40:34;3.20;99.90
36442;DHT22;64346;50.820;16.274;2023-03-11T05:43:01;3.20;99.90
36442;DHT22;64346;50.820;16.274;2023-03-11T05:45:28;3.20;99.90
36442;DHT22;64346;50.820;16.274;2023-03-11T05:47:56;3.20;99.90
36442;DHT22;64346;50.820;16.274;2023-03-11T05:50:25;3.10;99.90
36442;DHT22;64346;50.820;16.274;2023-03-11T05:52:53;3.10;99.90
36442;DHT22;64346;50.820;16.274;2023-03-11T05:55:22;3.10;99.90
36442;DHT22;64346;50.820;16.274;2023-03-11T05:57:54;3.00;99.90
36442;DHT22;64346;50.820;16.274;2023-03-11T06:00:24;3.00;99.90
36442;DHT22;64346;50.820;16.274;2023-03-11T06:02:51;3.00;99.90
36442;DHT22;64346;50.820;16.274;2023-03-11T06:05:21;3.00;99.90
36442;DHT22;64346;50.820;16.274;2023-03-11T06:07:48;3.00;99.90
36442;DHT22;64346;50.820;16.274;2023-03-11T06:10:18;3.10;99.90
36442;DHT22;64346;50.820;16.274;2023-03-11T06:12:48;3.10;99.90
36442;DHT22;64346;50.820;16.274;2023-03-11T06:15:15;3.00;99.90
36442;DHT22;64346;50.820;16.274;2023-03-11T06:17:45;3.00;99.90
36442;DHT22;64346;50.820;16.274;2023-03-11T06:20:14;3.00;99.90
36442;DHT22;64346;50.820;16.274;2023-03-11T06:22:42;3.00;99.90
36442;DHT22;64346;50.820;16.274;2023-03-11T06:25:09;2.90;99.90
36442;DHT22;64346;50.820;16.274;2023-03-11T06:27:36;2.90;99.90
36442;DHT22;64346;50.820;16.274;2023-03-11T06:30:07;2.90;99.90
36442;DHT22;64346;50.820;16.274;2023-03-11T06:32:37;2.90;99.90
36442;DHT22;64346;50.820;16.274;2023-03-11T06:35:06;2.90;99.90
36442;DHT22;64346;50.820;16.274;2023-03-11T06:37:37;2.90;99.90
36442;DHT22;64346;50.820;16.274;2023-03-11T06:40:06;2.90;99.90
36442;DHT22;64346;50.820;16.274;2023-03-11T06:42:35;2.90;99.90
36442;DHT22;64346;50.820;16.274;2023-03-11T06:45:05;2.90;99.90
36442;DHT22;64346;50.820;16.274;2023-03-11T06:47:32;3.00;99.90
36442;DHT22;64346;50.820;16.274;2023-03-11T06:50:00;3.00;99.90
36442;DHT22;64346;50.820;16.274;2023-03-11T06:52:27;3.00;99.90
36442;DHT22;64346;50.820;16.274;2023-03-11T06:54:54;3.10;99.90
36442;DHT22;64346;50.820;16.274;2023-03-11T06:57:24;3.10;99.90
36442;DHT22;64346;50.820;16.274;2023-03-11T06:59:51;3.10;99.90
36442;DHT22;64346;50.820;16.274;2023-03-11T07:02:18;3.10;99.90
36442;DHT22;64346;50.820;16.274;2023-03-11T07:04:48;3.10;99.90
36442;DHT22;64346;50.820;16.274;2023-03-11T07:07:16;3.10;99.90
36442;DHT22;64346;50.820;16.274;2023-03-11T07:09:46;3.10;99.90
36442;DHT22;64346;50.820;16.274;2023-03-11T07:12:13;3.10;99.90
36442;DHT22;64346;50.820;16.274;2023-03-11T07:14:40;3.10;99.90
36442;DHT22;64346;50.820;16.274;2023-03-11T07:17:07;3.00;99.90
36442;DHT22;64346;50.820;16.274;2023-03-11T07:19:35;3.00;99.90
36442;DHT22;64346;50.820;16.274;2023-03-11T07:22:02;2.90;99.90
36442;DHT22;64346;50.820;16.274;2023-03-11T07:24:29;2.90;99.90
36442;DHT22;64346;50.820;16.274;2023-03-11T07:26:56;2.90;99.90
36442;DHT22;64346;50.820;16.274;2023-03-11T07:29:23;2.90;99.90
36442;DHT22;64346;50.820;16.274;2023-03-11T07:31:55;2.90;99.90
36442;DHT22;64346;50.820;16.274;2023-03-11T07:34:25;2.90;99.90
36442;DHT22;64346;50.820;16.274;2023-03-11T07:36:52;2.80;99.90
36442;DHT22;64346;50.820;16.274;2023-03-11T07:39:20;2.80;99.90
36442;DHT22;64346;50.820;16.274;2023-03-11T07:41:49;2.80;99.90
36442;DHT22;64346;50.820;16.274;2023-03-11T07:44:17;2.80;99.90
36442;DHT22;64346;50.820;16.274;2023-03-11T07:46:45;2.90;99.90
36442;DHT22;64346;50.820;16.274;2023-03-11T07:49:12;2.80;99.90
36442;DHT22;64346;50.820;16.274;2023-03-11T07:51:40;2.80;99.90
36442;DHT22;64346;50.820;16.274;2023-03-11T07:54:09;2.80;99.90
36442;DHT22;64346;50.820;16.274;2023-03-11T07:56:36;2.80;99.90
36442;DHT22;64346;50.820;16.274;2023-03-11T07:59:06;2.70;99.90
36442;DHT22;64346;50.820;16.274;2023-03-11T08:01:36;2.70;99.90
36442;DHT22;64346;50.820;16.274;2023-03-11T08:04:05;2.70;99.90
36442;DHT22;64346;50.820;16.274;2023-03-11T08:06:33;2.80;99.90
36442;DHT22;64346;50.820;16.274;2023-03-11T08:09:05;2.80;99.90
36442;DHT22;64346;50.820;16.274;2023-03-11T08:11:34;2.80;99.90
36442;DHT22;64346;50.820;16.274;2023-03-11T08:14:02;2.90;99.90
36442;DHT22;64346;50.820;16.274;2023-03-11T08:16:32;2.90;99.90
36442;DHT22;64346;50.820;16.274;2023-03-11T08:19:00;2.90;99.90
36442;DHT22;64346;50.820;16.274;2023-03-11T08:21:30;2.90;99.90
36442;DHT22;64346;50.820;16.274;2023-03-11T08:24:00;2.90;99.90
36442;DHT22;64346;50.820;16.274;2023-03-11T08:26:28;2.80;99.90
36442;DHT22;64346;50.820;16.274;2023-03-11T08:28:56;2.80;99.90
36442;DHT22;64346;50.820;16.274;2023-03-11T08:31:27;2.80;99.90
36442;DHT22;64346;50.820;16.274;2023-03-11T08:34:03;2.80;99.90
36442;DHT22;64346;50.820;16.274;2023-03-11T08:36:31;2.80;99.90
36442;DHT22;64346;50.820;16.274;2023-03-11T08:39:01;3.00;99.90
36442;DHT22;64346;50.820;16.274;2023-03-11T08:41:31;3.10;99.90
36442;DHT22;64346;50.820;16.274;2023-03-11T08:43:59;3.10;99.90
36442;DHT22;64346;50.820;16.274;2023-03-11T08:48:56;3.20;99.90
36442;DHT22;64346;50.820;16.274;2023-03-11T08:51:28;3.40;99.90
36442;DHT22;64346;50.820;16.274;2023-03-11T08:53:56;3.40;99.90
36442;DHT22;64346;50.820;16.274;2023-03-11T08:56:23;3.40;99.90
36442;DHT22;64346;50.820;16.274;2023-03-11T08:58:53;3.50;99.90
36442;DHT22;64346;50.820;16.274;2023-03-11T09:01:21;3.50;99.90
36442;DHT22;64346;50.820;16.274;2023-03-11T09:03:50;3.60;99.90
36442;DHT22;64346;50.820;16.274;2023-03-11T09:06:20;3.70;99.90
36442;DHT22;64346;50.820;16.274;2023-03-11T09:08:48;3.70;99.90
36442;DHT22;64346;50.820;16.274;2023-03-11T09:11:18;3.70;99.90
36442;DHT22;64346;50.820;16.274;2023-03-11T09:13:46;3.80;99.90
36442;DHT22;64346;50.820;16.274;2023-03-11T09:16:18;3.70;99.90
36442;DHT22;64346;50.820;16.274;2023-03-11T09:18:46;3.70;99.90
36442;DHT22;64346;50.820;16.274;2023-03-11T09:21:13;3.60;99.90
36442;DHT22;64346;50.820;16.274;2023-03-11T09:23:41;3.60;99.90
36442;DHT22;64346;50.820;16.274;2023-03-11T09:26:13;3.60;99.90
36442;DHT22;64346;50.820;16.274;2023-03-11T09:28:42;3.80;99.90
36442;DHT22;64346;50.820;16.274;2023-03-11T09:31:10;4.10;99.90
36442;DHT22;64346;50.820;16.274;2023-03-11T09:33:39;4.40;99.90
36442;DHT22;64346;50.820;16.274;2023-03-11T09:36:07;4.70;99.90
36442;DHT22;64346;50.820;16.274;2023-03-11T09:38:41;5.00;99.90
36442;DHT22;64346;50.820;16.274;2023-03-11T09:52:32;6.00;99.90
36442;DHT22;64346;50.820;16.274;2023-03-11T09:55:06;5.60;99.90
36442;DHT22;64346;50.820;16.274;2023-03-11T09:57:43;5.00;99.90
36442;DHT22;64346;50.820;16.274;2023-03-11T10:00:11;4.60;99.90
36442;DHT22;64346;50.820;16.274;2023-03-11T10:02:38;4.30;99.90
36442;DHT22;64346;50.820;16.274;2023-03-11T10:08:06;3.70;99.90
36442;DHT22;64346;50.820;16.274;2023-03-11T10:10:44;3.40;99.90
36442;DHT22;64346;50.820;16.274;2023-03-11T10:16:18;2.80;99.90
36442;DHT22;64346;50.820;16.274;2023-03-11T10:19:03;2.70;99.90
36442;DHT22;64346;50.820;16.274;2023-03-11T10:26:58;4.10;99.90
36442;DHT22;64346;50.820;16.274;2023-03-11T10:29:55;4.50;99.90
36442;DHT22;64346;50.820;16.274;2023-03-11T10:32:29;4.60;99.90
36442;DHT22;64346;50.820;16.274;2023-03-11T10:37:38;4.60;99.90
36442;DHT22;64346;50.820;16.274;2023-03-11T10:42:51;4.50;99.90
36442;DHT22;64346;50.820;16.274;2023-03-11T10:45:21;4.40;99.90
36442;DHT22;64346;50.820;16.274;2023-03-11T10:47:51;4.50;99.90
36442;DHT22;64346;50.820;16.274;2023-03-11T10:50:19;4.60;99.90
36442;DHT22;64346;50.820;16.274;2023-03-11T10:53:09;4.70;99.90
36442;DHT22;64346;50.820;16.274;2023-03-11T10:55:49;4.50;99.90
36442;DHT22;64346;50.820;16.274;2023-03-11T10:58:20;4.20;99.90
36442;DHT22;64346;50.820;16.274;2023-03-11T11:01:02;3.90;99.90
36442;DHT22;64346;50.820;16.274;2023-03-11T11:03:32;3.50;99.90
36442;DHT22;64346;50.820;16.274;2023-03-11T11:06:04;3.30;99.90
36442;DHT22;64346;50.820;16.274;2023-03-11T11:08:35;3.10;99.90
36442;DHT22;64346;50.820;16.274;2023-03-11T11:11:09;3.30;99.90
36442;DHT22;64346;50.820;16.274;2023-03-11T11:13:55;3.60;99.90
36442;DHT22;64346;50.820;16.274;2023-03-11T11:16:23;4.20;99.90
36442;DHT22;64346;50.820;16.274;2023-03-11T11:19:12;4.60;99.90
36442;DHT22;64346;50.820;16.274;2023-03-11T11:21:46;5.00;99.90
36442;DHT22;64346;50.820;16.274;2023-03-11T11:24:28;5.20;99.90
36442;DHT22;64346;50.820;16.274;2023-03-11T11:27:18;5.10;99.90
36442;DHT22;64346;50.820;16.274;2023-03-11T11:30:01;5.10;99.90
36442;DHT22;64346;50.820;16.274;2023-03-11T11:32:31;5.30;99.90
36442;DHT22;64346;50.820;16.274;2023-03-11T11:35:03;5.70;99.90
36442;DHT22;64346;50.820;16.274;2023-03-11T11:37:33;5.70;99.90
36442;DHT22;64346;50.820;16.274;2023-03-11T11:40:16;5.60;99.90
36442;DHT22;64346;50.820;16.274;2023-03-11T11:48:17;5.70;99.90
36442;DHT22;64346;50.820;16.274;2023-03-11T11:50:59;5.70;99.90
36442;DHT22;64346;50.820;16.274;2023-03-11T11:55:55;5.50;99.90
36442;DHT22;64346;50.820;16.274;2023-03-11T11:58:22;5.30;99.90
36442;DHT22;64346;50.820;16.274;2023-03-11T12:09:49;4.90;99.90
36442;DHT22;64346;50.820;16.274;2023-03-11T12:12:41;4.60;99.90
36442;DHT22;64346;50.820;16.274;2023-03-11T12:17:52;4.30;99.90
36442;DHT22;64346;50.820;16.274;2023-03-11T12:20:29;4.20;99.90
36442;DHT22;64346;50.820;16.274;2023-03-11T12:23:14;4.10;99.90
36442;DHT22;64346;50.820;16.274;2023-03-11T12:28:23;3.90;99.90
36442;DHT22;64346;50.820;16.274;2023-03-11T12:30:58;3.70;99.90
36442;DHT22;64346;50.820;16.274;2023-03-11T12:33:40;3.90;99.90
36442;DHT22;64346;50.820;16.274;2023-03-11T12:36:28;4.10;99.90
36442;DHT22;64346;50.820;16.274;2023-03-11T12:38:59;4.10;99.90
36442;DHT22;64346;50.820;16.274;2023-03-11T12:44:26;3.90;99.90
36442;DHT22;64346;50.820;16.274;2023-03-11T12:49:35;3.60;99.90
36442;DHT22;64346;50.820;16.274;2023-03-11T12:54:39;3.70;99.90
36442;DHT22;64346;50.820;16.274;2023-03-11T13:07:50;4.90;99.90
36442;DHT22;64346;50.820;16.274;2023-03-11T13:16:33;4.60;99.90
36442;DHT22;64346;50.820;16.274;2023-03-11T13:18:45;4.60;99.90
36442;DHT22;64346;50.820;16.274;2023-03-11T13:36:11;4.60;99.90
36442;DHT22;64346;50.820;16.274;2023-03-11T13:39:06;4.60;99.90
36442;DHT22;64346;50.820;16.274;2023-03-11T13:41:35;4.70;99.90
36442;DHT22;64346;50.820;16.274;2023-03-11T13:46:48;4.90;99.90
36442;DHT22;64346;50.820;16.274;2023-03-11T13:52:11;5.10;99.90
36442;DHT22;64346;50.820;16.274;2023-03-11T13:54:58;5.30;99.90
36442;DHT22;64346;50.820;16.274;2023-03-11T13:57:36;5.20;99.90
36442;DHT22;64346;50.820;16.274;2023-03-11T14:00:17;5.20;99.90
36442;DHT22;64346;50.820;16.274;2023-03-11T14:02:48;5.20;99.90
36442;DHT22;64346;50.820;16.274;2023-03-11T14:05:24;5.10;99.90
36442;DHT22;64346;50.820;16.274;2023-03-11T14:07:52;4.80;99.90
36442;DHT22;64346;50.820;16.274;2023-03-11T14:10:22;4.80;99.90
36442;DHT22;64346;50.820;16.274;2023-03-11T14:13:03;4.70;99.90
36442;DHT22;64346;50.820;16.274;2023-03-11T14:15:42;4.40;99.90
36442;DHT22;64346;50.820;16.274;2023-03-11T14:18:28;4.00;99.90
36442;DHT22;64346;50.820;16.274;2023-03-11T14:20:58;3.80;99.90
36442;DHT22;64346;50.820;16.274;2023-03-11T14:23:44;3.90;99.90
36442;DHT22;64346;50.820;16.274;2023-03-11T14:26:25;4.10;99.90
36442;DHT22;64346;50.820;16.274;2023-03-11T14:28:56;4.30;99.90
36442;DHT22;64346;50.820;16.274;2023-03-11T14:34:10;4.20;99.90
36442;DHT22;64346;50.820;16.274;2023-03-11T14:41:51;4.10;99.90
36442;DHT22;64346;50.820;16.274;2023-03-11T14:44:20;4.00;99.90
36442;DHT22;64346;50.820;16.274;2023-03-11T14:46:50;4.00;99.90
36442;DHT22;64346;50.820;16.274;2023-03-11T14:49:23;3.90;99.90
36442;DHT22;64346;50.820;16.274;2023-03-11T14:51:57;3.90;99.90
36442;DHT22;64346;50.820;16.274;2023-03-11T14:54:28;4.00;99.90
36442;DHT22;64346;50.820;16.274;2023-03-11T14:59:52;3.90;99.90
36442;DHT22;64346;50.820;16.274;2023-03-11T15:02:44;3.80;99.90
36442;DHT22;64346;50.820;16.274;2023-03-11T15:05:22;3.50;99.90
36442;DHT22;64346;50.820;16.274;2023-03-11T15:07:57;3.30;99.90
36442;DHT22;64346;50.820;16.274;2023-03-11T15:10:27;3.30;99.90
36442;DHT22;64346;50.820;16.274;2023-03-11T15:13:14;3.30;99.90
36442;DHT22;64346;50.820;16.274;2023-03-11T15:15:41;3.40;99.90
36442;DHT22;64346;50.820;16.274;2023-03-11T15:18:24;3.60;99.90
36442;DHT22;64346;50.820;16.274;2023-03-11T15:21:26;3.60;99.90
36442;DHT22;64346;50.820;16.274;2023-03-11T15:24:00;3.60;99.90
36442;DHT22;64346;50.820;16.274;2023-03-11T15:26:30;3.80;99.90
36442;DHT22;64346;50.820;16.274;2023-03-11T15:29:15;4.00;99.90
36442;DHT22;64346;50.820;16.274;2023-03-11T15:31:44;4.10;99.90
36442;DHT22;64346;50.820;16.274;2023-03-11T15:44:48;3.60;99.90
36442;DHT22;64346;50.820;16.274;2023-03-11T15:47:23;3.50;99.90
36442;DHT22;64346;50.820;16.274;2023-03-11T15:49:51;3.30;99.90
36442;DHT22;64346;50.820;16.274;2023-03-11T15:52:20;3.20;99.90
36442;DHT22;64346;50.820;16.274;2023-03-11T15:54:48;3.20;99.90
36442;DHT22;64346;50.820;16.274;2023-03-11T15:57:28;3.10;99.90
36442;DHT22;64346;50.820;16.274;2023-03-11T15:59:57;2.80;99.90
36442;DHT22;64346;50.820;16.274;2023-03-11T16:02:29;2.60;99.90
36442;DHT22;64346;50.820;16.274;2023-03-11T16:04:59;2.50;99.90
36442;DHT22;64346;50.820;16.274;2023-03-11T16:07:26;2.40;99.90
36442;DHT22;64346;50.820;16.274;2023-03-11T16:10:07;2.30;99.90
36442;DHT22;64346;50.820;16.274;2023-03-11T16:12:36;2.20;99.90
36442;DHT22;64346;50.820;16.274;2023-03-11T16:15:04;2.10;99.90
36442;DHT22;64346;50.820;16.274;2023-03-11T16:17:34;2.10;99.90
36442;DHT22;64346;50.820;16.274;2023-03-11T16:20:16;2.10;99.90
36442;DHT22;64346;50.820;16.274;2023-03-11T16:22:45;2.10;99.90
36442;DHT22;64346;50.820;16.274;2023-03-11T16:25:49;2.10;99.90
36442;DHT22;64346;50.820;16.274;2023-03-11T16:28:17;2.10;99.90
36442;DHT22;64346;50.820;16.274;2023-03-11T16:30:45;2.00;99.90
36442;DHT22;64346;50.820;16.274;2023-03-11T16:33:14;2.00;99.90
36442;DHT22;64346;50.820;16.274;2023-03-11T16:35:42;2.00;99.90
36442;DHT22;64346;50.820;16.274;2023-03-11T16:38:11;2.10;99.90
36442;DHT22;64346;50.820;16.274;2023-03-11T16:40:39;2.10;99.90
36442;DHT22;64346;50.820;16.274;2023-03-11T16:43:08;2.20;99.90
36442;DHT22;64346;50.820;16.274;2023-03-11T16:45:36;2.10;99.90
36442;DHT22;64346;50.820;16.274;2023-03-11T16:48:04;2.10;99.90
36442;DHT22;64346;50.820;16.274;2023-03-11T16:50:32;2.10;99.90
36442;DHT22;64346;50.820;16.274;2023-03-11T16:53:01;2.10;99.90
36442;DHT22;64346;50.820;16.274;2023-03-11T16:55:29;2.10;99.90
36442;DHT22;64346;50.820;16.274;2023-03-11T16:57:56;2.00;99.90
36442;DHT22;64346;50.820;16.274;2023-03-11T17:00:24;2.00;99.90
36442;DHT22;64346;50.820;16.274;2023-03-11T17:02:53;1.90;99.90
36442;DHT22;64346;50.820;16.274;2023-03-11T17:05:21;1.90;99.90
36442;DHT22;64346;50.820;16.274;2023-03-11T17:07:52;1.90;99.90
36442;DHT22;64346;50.820;16.274;2023-03-11T17:10:22;1.90;99.90
36442;DHT22;64346;50.820;16.274;2023-03-11T17:12:49;1.80;99.90
36442;DHT22;64346;50.820;16.274;2023-03-11T17:15:19;1.80;99.90
36442;DHT22;64346;50.820;16.274;2023-03-11T17:17:46;1.80;99.90
36442;DHT22;64346;50.820;16.274;2023-03-11T17:20:17;1.80;99.90
36442;DHT22;64346;50.820;16.274;2023-03-11T17:22:49;1.80;99.90
36442;DHT22;64346;50.820;16.274;2023-03-11T17:25:17;1.90;99.90
36442;DHT22;64346;50.820;16.274;2023-03-11T17:27:44;1.80;99.90
36442;DHT22;64346;50.820;16.274;2023-03-11T17:30:12;1.80;99.90
36442;DHT22;64346;50.820;16.274;2023-03-11T17:32:45;1.80;99.90
36442;DHT22;64346;50.820;16.274;2023-03-11T17:35:12;1.80;99.90
36442;DHT22;64346;50.820;16.274;2023-03-11T17:37:39;1.80;99.90
36442;DHT22;64346;50.820;16.274;2023-03-11T17:40:07;1.80;99.90
36442;DHT22;64346;50.820;16.274;2023-03-11T17:42:37;1.80;99.90
36442;DHT22;64346;50.820;16.274;2023-03-11T17:45:05;1.80;99.90
36442;DHT22;64346;50.820;16.274;2023-03-11T17:47:33;1.70;99.90
36442;DHT22;64346;50.820;16.274;2023-03-11T17:50:00;1.70;99.90
36442;DHT22;64346;50.820;16.274;2023-03-11T17:52:28;1.60;99.90
36442;DHT22;64346;50.820;16.274;2023-03-11T17:54:57;1.60;99.90
36442;DHT22;64346;50.820;16.274;2023-03-11T17:57:24;1.60;99.90
36442;DHT22;64346;50.820;16.274;2023-03-11T17:59:52;1.60;99.90
36442;DHT22;64346;50.820;16.274;2023-03-11T18:02:19;1.30;99.90